createdAt,value
2017-09-25T00:00:22.721Z,31.43
2017-09-25T00:02:49.780Z,31.17
2017-09-25T00:05:16.182Z,29.93
2017-09-25T00:07:42.913Z,29.40
2017-09-25T00:10:09.344Z,31.03
2017-09-25T00:12:35.865Z,32.00
2017-09-25T00:15:02.105Z,33.30
2017-09-25T00:17:28.370Z,34.80
2017-09-25T00:19:54.702Z,32.17
2017-09-25T00:22:21.321Z,32.60
2017-09-25T00:24:47.685Z,29.10
2017-09-25T00:27:14.083Z,25.33
2017-09-25T00:29:41.162Z,28.93
2017-09-25T00:32:07.473Z,31.47
2017-09-25T00:34:34.478Z,31.20
2017-09-25T00:37:01.035Z,32.00
2017-09-25T00:39:27.586Z,30.23
2017-09-25T00:41:53.872Z,29.60
2017-09-25T00:44:20.955Z,28.97
2017-09-25T00:46:47.293Z,30.60
2017-09-25T00:49:13.801Z,33.17
2017-09-25T00:51:40.267Z,33.63
2017-09-25T00:54:06.572Z,32.80
2017-09-25T00:56:32.892Z,30.80
2017-09-25T00:58:59.150Z,28.23
2017-09-25T01:01:37.872Z,28.80
2017-09-25T01:04:16.459Z,29.13
2017-09-25T01:06:42.929Z,28.57
2017-09-25T01:09:09.795Z,27.63
2017-09-25T01:11:36.895Z,26.40
2017-09-25T01:14:03.155Z,25.90
2017-09-25T01:16:29.500Z,23.83
2017-09-25T01:18:55.749Z,29.30
2017-09-25T01:21:22.090Z,26.00
2017-09-25T01:23:48.499Z,27.33
2017-09-25T01:26:15.520Z,24.60
2017-09-25T01:28:41.984Z,24.83
2017-09-25T01:31:08.189Z,25.67
2017-09-25T01:33:34.532Z,24.40
2017-09-25T01:36:01.064Z,25.27
2017-09-25T01:38:28.040Z,23.53
2017-09-25T01:40:54.332Z,22.67
2017-09-25T01:43:20.841Z,23.60
2017-09-25T01:45:47.790Z,22.70
2017-09-25T01:48:14.056Z,24.80
2017-09-25T01:50:41.065Z,25.40
2017-09-25T01:53:07.308Z,23.10
2017-09-25T01:55:33.612Z,23.93
2017-09-25T01:57:59.946Z,24.57
2017-09-25T02:00:26.270Z,22.93
2017-09-25T02:02:52.590Z,22.13
2017-09-25T02:05:18.949Z,23.13
2017-09-25T02:07:45.490Z,26.70
2017-09-25T02:10:11.732Z,26.60
2017-09-25T02:12:38.157Z,26.80
2017-09-25T02:15:04.425Z,29.60
2017-09-25T02:17:31.415Z,31.27
2017-09-25T02:19:57.783Z,31.57
2017-09-25T02:22:24.210Z,30.53
2017-09-25T02:24:50.939Z,31.10
2017-09-25T02:27:17.274Z,28.50
2017-09-25T02:29:43.528Z,28.90
2017-09-25T02:32:09.870Z,29.43
2017-09-25T02:34:36.965Z,28.67
2017-09-25T02:37:03.247Z,29.37
2017-09-25T02:39:31.240Z,25.73
2017-09-25T02:41:57.999Z,25.47
2017-09-25T02:44:25.374Z,23.40
2017-09-25T02:46:51.862Z,23.87
2017-09-25T02:49:18.265Z,25.47
2017-09-25T02:51:44.510Z,25.40
2017-09-25T02:54:11.795Z,26.10
2017-09-25T02:56:38.088Z,25.70
2017-09-25T02:59:04.342Z,29.67
2017-09-25T03:01:31.025Z,27.27
2017-09-25T03:03:58.013Z,24.13
2017-09-25T03:06:25.357Z,25.97
2017-09-25T03:08:51.690Z,23.50
2017-09-25T03:11:17.991Z,25.17
2017-09-25T03:13:44.233Z,27.50
2017-09-25T03:16:10.458Z,29.57
2017-09-25T03:18:37.448Z,30.73
2017-09-25T03:21:04.444Z,29.83
2017-09-25T03:23:30.796Z,27.20
2017-09-25T03:25:57.960Z,26.50
2017-09-25T03:28:25.111Z,25.77
2017-09-25T03:30:51.426Z,25.27
2017-09-25T03:33:17.781Z,26.10
2017-09-25T03:35:44.071Z,27.23
2017-09-25T03:38:10.396Z,24.83
2017-09-25T03:40:36.780Z,24.17
2017-09-25T03:43:03.245Z,25.13
2017-09-25T03:45:29.572Z,26.57
2017-09-25T03:47:55.942Z,25.90
2017-09-25T03:50:22.193Z,25.07
2017-09-25T03:52:48.891Z,25.30
2017-09-25T03:55:15.188Z,27.53
2017-09-25T03:57:41.451Z,28.13
2017-09-25T04:00:07.835Z,27.97
2017-09-25T04:02:34.136Z,26.23
2017-09-25T04:05:00.487Z,29.63
2017-09-25T04:07:26.698Z,29.50
2017-09-25T04:09:53.246Z,27.83
2017-09-25T04:12:20.468Z,27.77
2017-09-25T04:14:46.696Z,29.63
2017-09-25T04:17:13.331Z,27.50
2017-09-25T04:19:39.685Z,27.60
2017-09-25T04:22:06.434Z,27.97
2017-09-25T04:24:32.825Z,30.47
2017-09-25T04:26:59.117Z,30.90
2017-09-25T04:29:25.745Z,31.20
2017-09-25T04:31:52.720Z,28.60
2017-09-25T04:34:19.002Z,29.67
2017-09-25T04:36:45.245Z,29.40
2017-09-25T04:39:11.498Z,31.10
2017-09-25T04:41:37.778Z,33.97
2017-09-25T04:44:04.040Z,32.83
2017-09-25T04:46:30.396Z,31.60
2017-09-25T04:48:56.718Z,32.57
2017-09-25T04:51:23.049Z,28.90
2017-09-25T04:53:49.551Z,32.90
2017-09-25T04:56:16.145Z,36.20
2017-09-25T04:58:42.434Z,36.10
2017-09-25T05:01:08.884Z,34.77
2017-09-25T05:03:36.048Z,35.00
2017-09-25T05:06:02.318Z,35.87
2017-09-25T05:08:28.621Z,31.57
2017-09-25T05:10:55.148Z,34.33
2017-09-25T05:13:21.492Z,31.80
2017-09-25T05:15:47.829Z,31.40
2017-09-25T05:18:14.112Z,31.83
2017-09-25T05:20:40.392Z,32.70
2017-09-25T05:23:06.617Z,32.83
2017-09-25T05:25:32.945Z,34.97
2017-09-25T05:27:59.274Z,35.30
2017-09-25T05:30:26.680Z,35.00
2017-09-25T05:32:53.514Z,34.70
2017-09-25T05:35:20.057Z,35.00
2017-09-25T05:37:46.757Z,37.23
2017-09-25T05:40:13.928Z,37.40
2017-09-25T05:42:40.397Z,36.60
2017-09-25T05:45:06.698Z,36.33
2017-09-25T05:47:32.964Z,37.80
2017-09-25T05:50:00.011Z,40.70
2017-09-25T05:52:26.503Z,40.20
2017-09-25T05:54:52.771Z,37.47
2017-09-25T05:57:20.072Z,37.70
2017-09-25T05:59:47.283Z,41.23
2017-09-25T06:02:14.279Z,42.87
2017-09-25T06:04:41.995Z,40.77
2017-09-25T06:07:09.083Z,38.60
2017-09-25T06:09:35.785Z,39.50
2017-09-25T06:12:02.100Z,44.97
2017-09-25T06:14:28.329Z,46.47
2017-09-25T06:16:54.567Z,46.77
2017-09-25T06:19:21.665Z,42.80
2017-09-25T06:21:48.667Z,43.30
2017-09-25T06:24:14.894Z,42.43
2017-09-25T06:26:41.253Z,43.13
2017-09-25T06:29:08.523Z,42.70
2017-09-25T06:31:34.941Z,48.47
2017-09-25T06:34:01.312Z,45.07
2017-09-25T06:36:31.153Z,43.17
2017-09-25T06:38:57.397Z,42.83
2017-09-25T06:41:24.464Z,50.00
2017-09-25T06:43:50.750Z,49.50
2017-09-25T06:46:17.115Z,53.50
2017-09-25T06:48:43.407Z,52.90
2017-09-25T06:51:09.680Z,52.83
2017-09-25T06:53:36.026Z,52.67
2017-09-25T06:56:02.306Z,50.00
2017-09-25T06:58:28.480Z,45.83
2017-09-25T07:00:54.782Z,42.57
2017-09-25T07:03:21.069Z,41.80
2017-09-25T07:05:48.250Z,34.43
2017-09-25T07:08:14.838Z,35.53
2017-09-25T07:10:41.099Z,36.20
2017-09-25T07:13:07.349Z,29.67
2017-09-25T07:15:33.892Z,28.53
2017-09-25T07:18:01.786Z,32.10
2017-09-25T07:20:27.997Z,28.73
2017-09-25T07:22:54.379Z,25.80
2017-09-25T07:25:21.434Z,24.17
2017-09-25T07:27:47.776Z,26.13
2017-09-25T07:30:14.032Z,26.67
2017-09-25T07:32:40.633Z,27.00
2017-09-25T07:35:06.886Z,25.43
2017-09-25T07:37:33.133Z,23.70
2017-09-25T07:39:59.523Z,28.33
2017-09-25T07:42:25.796Z,26.07
2017-09-25T07:44:52.194Z,27.77
2017-09-25T07:47:18.494Z,30.87
2017-09-25T07:49:44.807Z,25.50
2017-09-25T07:52:11.169Z,30.40
2017-09-25T07:54:37.444Z,27.67
2017-09-25T07:57:03.763Z,25.20
2017-09-25T07:59:30.072Z,25.60
2017-09-25T08:01:56.403Z,24.20
2017-09-25T08:04:22.611Z,25.00
2017-09-25T08:06:49.383Z,25.70
2017-09-25T08:09:16.409Z,25.30
2017-09-25T08:11:42.737Z,23.33
2017-09-25T08:14:09.088Z,21.07
2017-09-25T08:16:35.327Z,27.10
2017-09-25T08:19:03.626Z,23.90
2017-09-25T08:21:30.390Z,21.27
2017-09-25T08:23:57.433Z,19.30
2017-09-25T08:26:23.757Z,21.90
2017-09-25T08:28:50.844Z,19.70
2017-09-25T08:31:17.459Z,21.70
2017-09-25T08:33:44.459Z,20.63
2017-09-25T08:36:11.553Z,20.93
2017-09-25T08:38:37.842Z,20.23
2017-09-25T08:41:04.170Z,20.20
2017-09-25T08:43:30.508Z,21.10
2017-09-25T08:45:57.542Z,22.17
2017-09-25T08:48:23.896Z,22.27
2017-09-25T08:50:50.285Z,23.30
2017-09-25T08:53:17.182Z,23.80
2017-09-25T08:55:44.290Z,24.90
2017-09-25T08:58:11.599Z,26.77
2017-09-25T09:00:38.113Z,25.53
2017-09-25T09:03:04.338Z,27.10
2017-09-25T09:05:30.630Z,30.37
2017-09-25T09:07:56.997Z,28.60
2017-09-25T09:10:23.787Z,28.70
2017-09-25T09:12:51.224Z,28.50
2017-09-25T09:15:17.459Z,31.77
2017-09-25T09:17:43.687Z,32.67
2017-09-25T09:20:10.020Z,29.87
2017-09-25T09:22:37.051Z,29.40
2017-09-25T09:25:04.195Z,51.67
2017-09-25T09:27:31.009Z,30.20
2017-09-25T09:29:57.566Z,39.97
2017-09-25T09:32:23.991Z,28.40
2017-09-25T09:34:50.414Z,29.13
2017-09-25T09:37:17.032Z,29.27
2017-09-25T09:39:44.235Z,35.70
2017-09-25T09:42:10.481Z,50.07
2017-09-25T09:44:37.546Z,42.90
2017-09-25T09:47:04.017Z,38.90
2017-09-25T09:49:31.206Z,31.00
2017-09-25T09:51:58.238Z,29.30
2017-09-25T09:54:24.510Z,31.17
2017-09-25T09:56:50.806Z,30.73
2017-09-25T09:59:17.383Z,27.97
2017-09-25T10:01:43.701Z,29.70
2017-09-25T10:04:10.857Z,30.73
2017-09-25T10:06:40.898Z,28.13
2017-09-25T10:09:07.284Z,30.60
2017-09-25T10:11:33.625Z,35.70
2017-09-25T10:13:59.943Z,33.53
2017-09-25T10:16:26.446Z,45.97
2017-09-25T10:18:53.240Z,31.70
2017-09-25T10:21:19.468Z,32.20
2017-09-25T10:23:45.794Z,29.43
2017-09-25T10:26:12.896Z,28.57
2017-09-25T10:28:39.354Z,28.83
2017-09-25T10:31:05.716Z,30.10
2017-09-25T10:33:32.735Z,29.20
2017-09-25T10:36:00.930Z,29.97
2017-09-25T10:38:28.014Z,29.37
2017-09-25T10:40:54.416Z,28.43
2017-09-25T10:43:20.867Z,30.07
2017-09-25T10:45:47.589Z,28.67
2017-09-25T10:48:15.544Z,28.83
2017-09-25T10:50:41.975Z,30.60
2017-09-25T10:53:08.298Z,28.93
2017-09-25T10:55:34.779Z,29.33
2017-09-25T10:58:01.025Z,44.43
2017-09-25T11:00:27.368Z,51.87
2017-09-25T11:02:53.783Z,36.83
2017-09-25T11:05:20.052Z,31.03
2017-09-25T11:07:46.460Z,31.53
2017-09-25T11:10:12.799Z,30.97
2017-09-25T11:12:39.171Z,30.30
2017-09-25T11:15:05.579Z,31.30
2017-09-25T11:17:32.165Z,30.20
2017-09-25T11:19:58.538Z,27.97
2017-09-25T11:22:25.584Z,30.13
2017-09-25T11:24:51.931Z,26.40
2017-09-25T11:27:18.330Z,26.70
2017-09-25T11:29:45.210Z,28.77
2017-09-25T11:32:11.564Z,24.40
2017-09-25T11:34:38.735Z,22.60
2017-09-25T11:37:05.072Z,24.83
2017-09-25T11:39:32.096Z,34.10
2017-09-25T11:41:59.262Z,25.67
2017-09-25T11:44:25.522Z,22.37
2017-09-25T11:46:51.826Z,20.53
2017-09-25T11:49:18.132Z,20.70
2017-09-25T11:51:44.611Z,21.57
2017-09-25T11:54:11.129Z,21.47
2017-09-25T11:56:37.383Z,22.67
2017-09-25T11:59:03.712Z,20.90
2017-09-25T12:01:30.828Z,22.13
2017-09-25T12:03:57.106Z,22.90
2017-09-25T12:06:23.371Z,22.90
2017-09-25T12:08:50.519Z,22.97
2017-09-25T12:11:16.806Z,21.50
2017-09-25T12:13:43.214Z,21.97
2017-09-25T12:16:09.477Z,24.47
2017-09-25T12:18:35.722Z,23.30
2017-09-25T12:21:01.996Z,24.73
2017-09-25T12:23:28.295Z,25.50
2017-09-25T12:25:54.790Z,23.23
2017-09-25T12:28:21.079Z,23.50
2017-09-25T12:30:47.394Z,22.27
2017-09-25T12:33:13.732Z,20.80
2017-09-25T12:35:40.168Z,18.57
2017-09-25T12:38:06.522Z,21.50
2017-09-25T12:40:33.621Z,20.03
2017-09-25T12:42:59.915Z,20.07
2017-09-25T12:45:26.253Z,18.30
2017-09-25T12:47:52.547Z,17.23
2017-09-25T12:50:18.913Z,20.50
2017-09-25T12:52:45.176Z,17.33
2017-09-25T12:55:11.449Z,16.40
2017-09-25T12:57:37.786Z,16.60
2017-09-25T13:00:04.075Z,17.00
2017-09-25T13:02:30.327Z,16.03
2017-09-25T13:04:57.307Z,16.77
2017-09-25T13:07:23.593Z,15.17
2017-09-25T13:09:49.851Z,17.30
2017-09-25T13:12:16.148Z,16.90
2017-09-25T13:14:42.470Z,16.37
2017-09-25T13:17:08.906Z,16.60
2017-09-25T13:19:35.157Z,15.13
2017-09-25T13:22:01.412Z,15.30
2017-09-25T13:24:28.488Z,16.90
2017-09-25T13:26:54.858Z,16.13
2017-09-25T13:29:21.087Z,17.87
2017-09-25T13:31:47.400Z,14.83
2017-09-25T13:34:13.861Z,16.20
2017-09-25T13:36:40.140Z,14.90
2017-09-25T13:39:06.324Z,15.33
2017-09-25T13:41:33.343Z,14.97
2017-09-25T13:43:59.560Z,14.20
2017-09-25T13:46:25.767Z,15.10
2017-09-25T13:48:52.040Z,14.40
2017-09-25T13:51:18.357Z,15.00
2017-09-25T13:53:44.610Z,14.63
2017-09-25T13:56:10.880Z,14.23
2017-09-25T14:03:41.082Z,13.20
2017-09-25T14:06:07.364Z,12.70
2017-09-25T14:08:33.532Z,11.37
2017-09-25T14:10:59.894Z,9.80
2017-09-25T14:13:26.085Z,10.37
2017-09-25T14:15:52.336Z,9.83
2017-09-25T14:18:18.612Z,8.70
2017-09-25T14:20:44.869Z,9.33
2017-09-25T14:23:11.214Z,9.10
2017-09-25T14:25:37.618Z,9.77
2017-09-25T14:28:04.089Z,9.20
2017-09-25T14:30:30.520Z,10.33
2017-09-25T14:32:56.793Z,11.03
2017-09-25T14:35:23.159Z,12.60
2017-09-25T14:37:49.889Z,11.13
2017-09-25T14:40:16.247Z,11.30
2017-09-25T14:42:42.714Z,12.60
2017-09-25T14:45:09.151Z,12.50
2017-09-25T14:47:36.471Z,12.13
2017-09-25T14:50:03.859Z,13.60
2017-09-25T14:52:30.129Z,13.43
2017-09-25T14:54:56.453Z,14.03
2017-09-25T14:57:22.976Z,13.70
2017-09-25T14:59:49.264Z,13.90
2017-09-25T15:02:15.623Z,12.57
2017-09-25T15:04:41.893Z,13.27
2017-09-25T15:07:08.261Z,13.27
2017-09-25T15:09:35.423Z,11.90
2017-09-25T15:12:02.407Z,12.07
2017-09-25T15:14:28.775Z,12.03
2017-09-25T15:16:55.654Z,12.10
2017-09-25T15:19:22.901Z,11.13
2017-09-25T15:21:50.735Z,14.10
2017-09-25T15:24:17.112Z,13.23
2017-09-25T15:26:44.185Z,12.70
2017-09-25T15:29:10.468Z,12.93
2017-09-25T15:31:37.135Z,13.60
2017-09-25T15:34:03.485Z,15.70
2017-09-25T15:36:30.873Z,17.30
2017-09-25T15:38:57.216Z,14.50
2017-09-25T15:41:23.514Z,14.50
2017-09-25T15:43:49.889Z,13.87
2017-09-25T15:46:16.181Z,14.00
2017-09-25T15:48:42.408Z,15.20
2017-09-25T15:51:08.792Z,13.90
2017-09-25T15:53:35.135Z,14.67
2017-09-25T15:56:02.301Z,14.00
2017-09-25T15:58:28.644Z,14.80
2017-09-25T16:00:55.036Z,14.00
2017-09-25T16:03:21.475Z,13.90
2017-09-25T16:05:47.972Z,14.60
2017-09-25T16:08:14.232Z,15.70
2017-09-25T16:10:40.891Z,15.20
2017-09-25T16:13:07.281Z,14.40
2017-09-25T16:15:33.616Z,14.60
2017-09-25T16:17:59.984Z,14.63
2017-09-25T16:20:27.891Z,13.90
2017-09-25T16:22:54.236Z,16.20
2017-09-25T16:25:20.523Z,16.13
2017-09-25T16:27:47.698Z,15.90
2017-09-25T16:30:14.087Z,17.80
2017-09-25T16:32:40.515Z,14.67
2017-09-25T16:35:06.721Z,15.13
2017-09-25T16:37:33.039Z,14.33
2017-09-25T16:39:59.403Z,15.03
2017-09-25T16:42:25.704Z,16.03
2017-09-25T16:44:52.122Z,16.50
2017-09-25T16:47:18.383Z,14.97
2017-09-25T16:49:44.674Z,14.20
2017-09-25T16:52:10.972Z,15.67
2017-09-25T16:54:37.336Z,13.50
2017-09-25T16:57:03.653Z,16.57
2017-09-25T16:59:30.657Z,14.77
2017-09-25T17:01:56.966Z,15.60
2017-09-25T17:04:23.303Z,14.33
2017-09-25T17:06:49.532Z,16.00
2017-09-25T17:09:15.854Z,14.57
2017-09-25T17:11:42.059Z,15.33
2017-09-25T17:14:08.332Z,14.90
2017-09-25T17:16:34.560Z,16.30
2017-09-25T17:19:00.835Z,16.60
2017-09-25T17:21:27.089Z,19.67
2017-09-25T17:23:53.478Z,26.13
2017-09-25T17:26:20.081Z,23.37
2017-09-25T17:28:46.516Z,24.90
2017-09-25T17:31:12.763Z,23.37
2017-09-25T17:33:39.082Z,23.37
2017-09-25T17:36:05.431Z,36.93
2017-09-25T17:38:31.611Z,35.27
2017-09-25T17:40:57.882Z,32.80
2017-09-25T17:43:24.316Z,24.87
2017-09-25T17:45:50.604Z,21.53
2017-09-25T17:48:17.382Z,18.97
2017-09-25T17:50:43.633Z,21.87
2017-09-25T17:53:09.939Z,20.40
2017-09-25T17:55:36.260Z,18.57
2017-09-25T17:58:02.497Z,20.67
2017-09-25T18:00:28.901Z,17.90
2017-09-25T18:02:55.218Z,18.40
2017-09-25T18:05:23.240Z,21.70
2017-09-25T18:07:49.630Z,28.20
2017-09-25T18:10:15.892Z,20.07
2017-09-25T18:12:42.226Z,19.10
2017-09-25T18:15:08.456Z,16.70
2017-09-25T18:17:34.829Z,22.07
2017-09-25T18:20:01.025Z,18.80
2017-09-25T18:22:27.452Z,18.60
2017-09-25T18:24:53.677Z,19.53
2017-09-25T18:27:19.959Z,19.93
2017-09-25T18:29:46.376Z,17.33
2017-09-25T18:32:12.680Z,17.20
2017-09-25T18:34:39.037Z,15.73
2017-09-25T18:37:05.444Z,17.53
2017-09-25T18:39:31.832Z,19.37
2017-09-25T18:41:58.149Z,25.37
2017-09-25T18:44:24.460Z,23.33
2017-09-25T18:46:50.742Z,28.07
2017-09-25T18:49:16.948Z,26.33
2017-09-25T18:51:43.946Z,31.17
2017-09-25T18:54:10.326Z,61.33
2017-09-25T18:56:37.474Z,73.33
2017-09-25T18:59:05.404Z,45.63
2017-09-25T19:01:31.760Z,43.10
2017-09-25T19:03:58.004Z,49.37
2017-09-25T19:06:25.163Z,50.00
2017-09-25T19:08:51.531Z,43.13
2017-09-25T19:11:17.872Z,41.30
2017-09-25T19:13:44.250Z,45.67
2017-09-25T19:16:10.616Z,38.50
2017-09-25T19:18:36.890Z,32.40
2017-09-25T19:21:03.187Z,46.90
2017-09-25T19:23:29.495Z,39.17
2017-09-25T19:25:55.822Z,40.97
2017-09-25T19:28:22.215Z,41.90
2017-09-25T19:30:49.338Z,37.10
2017-09-25T19:33:15.628Z,31.60
2017-09-25T19:35:41.926Z,35.40
2017-09-25T19:38:08.177Z,32.43
2017-09-25T19:40:34.495Z,34.40
2017-09-25T19:43:00.838Z,34.70
2017-09-25T19:45:27.145Z,30.70
2017-09-25T19:47:53.633Z,40.87
2017-09-25T19:50:34.334Z,68.63
2017-09-25T19:53:00.748Z,45.73
2017-09-25T19:55:27.819Z,50.07
2017-09-25T19:58:10.032Z,44.83
2017-09-25T20:00:36.301Z,40.03
2017-09-25T20:03:03.221Z,38.13
2017-09-25T20:05:30.061Z,37.53
2017-09-25T20:07:56.360Z,39.90
2017-09-25T20:10:22.738Z,40.50
2017-09-25T20:12:49.774Z,32.70
2017-09-25T20:18:20.572Z,58.57
2017-09-25T20:20:46.868Z,49.00
2017-09-25T20:23:13.091Z,42.97
2017-09-25T20:25:39.838Z,38.70
2017-09-25T20:28:06.181Z,36.27
2017-09-25T20:30:32.549Z,34.50
2017-09-25T20:32:58.888Z,39.40
2017-09-25T20:35:25.244Z,39.07
2017-09-25T20:37:51.474Z,32.20
2017-09-25T20:40:17.796Z,31.10
2017-09-25T20:42:46.064Z,35.53
2017-09-25T20:45:12.358Z,32.20
2017-09-25T20:47:38.791Z,26.13
2017-09-25T20:50:05.106Z,27.27
2017-09-25T20:52:32.070Z,30.93
2017-09-25T20:54:58.437Z,31.77
2017-09-25T20:57:24.751Z,34.40
2017-09-25T20:59:51.019Z,39.33
2017-09-25T21:02:17.293Z,35.50
2017-09-25T21:04:43.619Z,28.37
2017-09-25T21:07:09.956Z,29.00
2017-09-25T21:09:36.267Z,35.67
2017-09-25T21:12:02.578Z,49.87
2017-09-25T21:14:29.005Z,44.70
2017-09-25T21:16:55.344Z,85.67
2017-09-25T21:19:21.577Z,54.70
2017-09-25T21:21:47.809Z,51.10
2017-09-25T21:24:14.147Z,48.50
2017-09-25T21:29:46.182Z,41.83
2017-09-25T21:32:12.588Z,38.37
2017-09-25T21:34:38.852Z,43.93
2017-09-25T21:37:05.180Z,42.33
2017-09-25T21:39:31.532Z,39.47
2017-09-25T21:41:57.855Z,37.27
2017-09-25T21:44:24.208Z,31.10
2017-09-25T21:46:50.576Z,32.67
2017-09-25T21:49:16.886Z,28.60
2017-09-25T21:51:43.367Z,30.17
2017-09-25T21:54:09.684Z,28.40
2017-09-25T21:56:36.599Z,48.40
2017-09-25T21:59:03.657Z,43.90
2017-09-25T22:01:29.997Z,40.37
2017-09-25T22:03:56.346Z,38.30
2017-09-25T22:06:22.627Z,33.43
2017-09-25T22:08:48.990Z,38.67
2017-09-25T22:11:16.718Z,42.80
2017-09-25T22:13:43.197Z,34.30
2017-09-25T22:16:09.825Z,36.93
2017-09-25T22:18:36.415Z,30.87
2017-09-25T22:21:02.757Z,32.77
2017-09-25T22:23:29.229Z,31.13
2017-09-25T22:25:55.548Z,29.37
2017-09-25T22:28:21.808Z,31.17
2017-09-25T22:30:48.190Z,31.23
2017-09-25T22:33:14.499Z,27.13
2017-09-25T22:35:40.871Z,24.27
2017-09-25T22:38:07.136Z,26.97
2017-09-25T22:40:33.433Z,27.40
2017-09-25T22:43:01.778Z,26.83
2017-09-25T22:45:28.084Z,24.97
2017-09-25T22:47:54.398Z,24.70
2017-09-25T22:50:20.681Z,25.40
2017-09-25T22:52:47.039Z,22.10
2017-09-25T22:55:14.710Z,22.47
2017-09-25T22:57:41.663Z,23.80
2017-09-25T23:00:08.047Z,24.80
2017-09-25T23:02:34.358Z,22.80
2017-09-25T23:05:01.577Z,23.10
2017-09-25T23:07:28.659Z,26.17
2017-09-25T23:09:54.936Z,25.97
2017-09-25T23:12:22.035Z,23.43
2017-09-25T23:14:48.422Z,24.13
2017-09-25T23:17:14.676Z,23.97
2017-09-25T23:19:40.985Z,20.70
2017-09-25T23:22:07.969Z,20.13
2017-09-25T23:24:34.217Z,22.80
2017-09-25T23:27:00.968Z,22.67
2017-09-25T23:29:27.387Z,22.40
2017-09-25T23:31:53.674Z,20.53
2017-09-25T23:34:20.278Z,21.20
2017-09-25T23:36:46.608Z,21.57
2017-09-25T23:39:12.816Z,21.57
2017-09-25T23:41:39.040Z,20.67
2017-09-25T23:44:05.335Z,19.57
2017-09-25T23:46:31.542Z,20.03
2017-09-25T23:48:57.854Z,19.90
2017-09-25T23:51:24.229Z,17.67
2017-09-25T23:53:50.517Z,17.77
2017-09-25T23:56:16.749Z,19.57
2017-09-25T23:58:42.966Z,18.13
